Time;durP1;ratioP1;P1;durP2;ratioP2;P2;SDS_P1;SDS_P2;PMS_P1;PMS_P2;Temp;Humidity;BMP_temperature;BMP_pressure;BME280_temperature;BME280_humidity;BME280_pressure;Samples;Min_cycle;Max_cycle;Signal;HPM_P1;HPM_P2
2023/10/31 00:00:04;;;;;;;20.88;12.45;;;14.20;99.90;;;;;;2060141;28;20038;-77
2023/10/31 00:01:05;;;;;;;21.83;13.05;;;14.10;99.90;;;;;;2059960;28;20018;-78
2023/10/31 00:02:06;;;;;;;21.73;12.60;;;14.20;99.90;;;;;;2059633;28;20048;-78
2023/10/31 00:03:06;;;;;;;21.70;12.85;;;14.20;99.90;;;;;;2059421;28;20493;-78
2023/10/31 00:04:07;;;;;;;20.90;12.13;;;14.10;99.90;;;;;;2062786;28;20406;-78
2023/10/31 00:05:08;;;;;;;17.92;11.55;;;14.20;99.90;;;;;;2055470;28;20034;-77
2023/10/31 00:06:09;;;;;;;18.38;11.80;;;14.20;99.90;;;;;;2054347;28;20023;-76
2023/10/31 00:07:09;;;;;;;18.63;11.52;;;14.20;99.90;;;;;;2051184;28;20069;-77
2023/10/31 00:08:10;;;;;;;16.63;11.48;;;14.20;99.90;;;;;;2056534;28;20578;-77
2023/10/31 00:09:11;;;;;;;14.52;11.10;;;14.20;99.90;;;;;;2059701;28;20054;-77
2023/10/31 00:10:11;;;;;;;19.65;12.93;;;14.20;99.90;;;;;;2046396;28;20513;-77
2023/10/31 00:11:12;;;;;;;17.65;11.70;;;14.20;99.90;;;;;;2045133;28;20644;-76
2023/10/31 00:12:12;;;;;;;16.13;11.30;;;14.20;99.90;;;;;;2054153;28;20030;-79
2023/10/31 00:13:13;;;;;;;13.02;11.02;;;14.20;99.90;;;;;;2051636;28;20026;-77
2023/10/31 00:14:14;;;;;;;16.77;12.05;;;14.20;99.90;;;;;;2057375;28;20035;-77
2023/10/31 00:15:14;;;;;;;17.83;12.10;;;14.20;99.90;;;;;;2054792;28;20041;-77
2023/10/31 00:16:15;;;;;;;18.40;12.10;;;14.20;99.90;;;;;;2051483;28;20034;-76
2023/10/31 00:17:15;;;;;;;17.65;12.38;;;14.20;99.90;;;;;;2056366;28;20069;-78
2023/10/31 00:18:16;;;;;;;16.90;11.77;;;14.20;99.90;;;;;;2063104;28;20046;-77
2023/10/31 00:19:17;;;;;;;17.77;12.60;;;14.20;99.90;;;;;;2063731;28;20412;-77
2023/10/31 00:20:17;;;;;;;15.55;12.68;;;14.20;99.90;;;;;;2055573;28;20153;-77
2023/10/31 00:21:19;;;;;;;19.67;13.02;;;14.10;99.90;;;;;;2051475;28;20062;-78
2023/10/31 00:22:20;;;;;;;20.95;13.35;;;14.10;99.90;;;;;;2054690;28;20065;-79
2023/10/31 00:23:22;;;;;;;16.90;12.32;;;14.10;99.90;;;;;;2048662;28;20484;-79
2023/10/31 00:24:22;;;;;;;19.70;12.77;;;14.10;99.90;;;;;;2060829;28;20027;-79
2023/10/31 00:25:23;;;;;;;20.00;13.10;;;14.00;99.90;;;;;;2058577;28;20116;-78
2023/10/31 00:26:23;;;;;;;17.83;12.45;;;14.00;99.90;;;;;;2049445;28;20065;-79
2023/10/31 00:27:27;;;;;;;18.02;12.32;;;14.00;99.90;;;;;;2053737;28;20027;-78
2023/10/31 00:28:28;;;;;;;17.17;11.93;;;14.00;99.90;;;;;;2058428;28;20034;-78
2023/10/31 00:29:28;;;;;;;17.65;12.40;;;14.00;99.90;;;;;;2057668;28;20679;-79
2023/10/31 00:30:29;;;;;;;17.75;12.30;;;14.00;99.90;;;;;;2043599;28;20042;-79
2023/10/31 00:31:30;;;;;;;16.50;11.73;;;14.00;99.90;;;;;;2037275;28;20147;-79
2023/10/31 00:32:30;;;;;;;17.63;11.77;;;14.00;99.90;;;;;;2047521;28;20139;-78
2023/10/31 00:33:32;;;;;;;17.85;12.40;;;14.00;99.90;;;;;;2056495;28;20022;-79
2023/10/31 00:34:33;;;;;;;17.30;12.52;;;14.00;99.90;;;;;;2057692;28;20026;-77
2023/10/31 00:35:33;;;;;;;16.77;12.27;;;14.00;99.90;;;;;;2054480;28;20425;-78
2023/10/31 00:36:34;;;;;;;16.15;12.05;;;14.00;99.90;;;;;;2058222;28;20026;-78
2023/10/31 00:37:35;;;;;;;15.30;12.18;;;14.00;99.90;;;;;;2059256;28;20058;-78
2023/10/31 00:38:35;;;;;;;16.95;12.55;;;14.00;99.90;;;;;;2054850;28;20050;-78
2023/10/31 00:39:36;;;;;;;16.58;12.23;;;14.00;99.90;;;;;;2053304;28;20535;-79
2023/10/31 00:40:36;;;;;;;20.38;12.90;;;14.00;99.90;;;;;;2048933;28;20040;-79
2023/10/31 00:41:40;;;;;;;16.33;12.40;;;14.00;99.90;;;;;;2059149;28;20023;-81
2023/10/31 00:42:41;;;;;;;17.00;12.60;;;14.00;99.90;;;;;;2059599;28;20048;-78
2023/10/31 00:43:42;;;;;;;17.95;12.35;;;14.00;99.90;;;;;;2055310;28;20026;-78
2023/10/31 00:44:43;;;;;;;18.23;12.55;;;13.90;99.90;;;;;;2062649;28;20029;-79
2023/10/31 00:45:44;;;;;;;17.50;12.82;;;13.90;99.90;;;;;;2060576;28;20038;-79
2023/10/31 00:46:44;;;;;;;18.20;12.93;;;13.90;99.90;;;;;;2053428;28;20023;-77
2023/10/31 00:47:45;;;;;;;21.08;13.13;;;13.90;99.90;;;;;;2048217;28;20030;-77
2023/10/31 00:48:46;;;;;;;16.48;12.48;;;13.80;99.90;;;;;;2054920;28;20038;-77
2023/10/31 00:49:47;;;;;;;17.73;12.63;;;13.80;99.90;;;;;;2047391;28;20717;-79
2023/10/31 00:50:47;;;;;;;16.50;11.95;;;13.80;99.90;;;;;;2062319;28;20513;-77
2023/10/31 00:51:48;;;;;;;19.13;12.55;;;13.80;99.90;;;;;;2061856;28;20144;-78
2023/10/31 00:52:49;;;;;;;19.27;13.32;;;13.80;99.90;;;;;;2050876;28;20157;-78
2023/10/31 00:53:49;;;;;;;19.92;12.50;;;13.80;99.90;;;;;;2051290;28;20034;-78
2023/10/31 00:54:50;;;;;;;18.98;12.77;;;13.80;99.90;;;;;;2062814;28;20061;-78
2023/10/31 00:55:50;;;;;;;21.45;13.40;;;13.80;99.90;;;;;;2059918;28;20026;-78
2023/10/31 00:56:51;;;;;;;17.30;12.35;;;13.80;99.90;;;;;;2059993;28;20022;-78
2023/10/31 00:57:52;;;;;;;15.73;12.85;;;13.80;99.90;;;;;;2063858;28;20038;-78
2023/10/31 00:58:53;;;;;;;16.70;12.55;;;13.80;99.90;;;;;;2058063;28;20038;-77
2023/10/31 00:59:54;;;;;;;15.95;12.38;;;13.80;99.90;;;;;;2062157;28;20034;-79
2023/10/31 01:00:54;;;;;;;17.52;12.60;;;13.80;99.90;;;;;;2050573;28;20035;-77
2023/10/31 01:01:55;;;;;;;21.05;12.30;;;13.80;99.90;;;;;;2052321;28;20686;-77
2023/10/31 01:02:55;;;;;;;20.35;12.40;;;13.90;99.90;;;;;;2062265;28;20724;-78
2023/10/31 01:03:56;;;;;;;17.92;12.45;;;13.90;99.90;;;;;;2062553;28;20033;-78
2023/10/31 01:04:57;;;;;;;18.15;12.13;;;13.90;99.90;;;;;;2062996;28;20026;-78
2023/10/31 01:05:58;;;;;;;17.40;12.10;;;13.90;99.90;;;;;;2056352;28;20030;-79
2023/10/31 01:06:58;;;;;;;17.83;12.13;;;13.90;99.90;;;;;;2053859;28;20693;-77
2023/10/31 01:07:59;;;;;;;17.08;12.43;;;13.90;99.90;;;;;;2053115;28;20039;-78
2023/10/31 01:08:59;;;;;;;18.90;12.30;;;13.90;99.90;;;;;;2057504;28;20026;-78
2023/10/31 01:10:00;;;;;;;19.00;12.45;;;13.90;99.90;;;;;;2057441;28;20034;-78
2023/10/31 01:11:01;;;;;;;18.05;12.40;;;13.90;99.90;;;;;;2054242;28;20018;-78
2023/10/31 01:12:01;;;;;;;16.50;11.52;;;13.90;99.90;;;;;;2044773;28;20802;-79
2023/10/31 01:13:02;;;;;;;16.08;12.02;;;13.90;99.90;;;;;;2050647;28;20035;-78
2023/10/31 01:14:03;;;;;;;15.38;11.88;;;13.90;99.90;;;;;;2055571;28;20422;-77
2023/10/31 01:15:04;;;;;;;16.33;12.35;;;13.90;99.90;;;;;;2053651;28;20026;-77
2023/10/31 01:16:06;;;;;;;20.45;12.70;;;13.90;99.90;;;;;;2059719;28;20258;-79
2023/10/31 01:17:07;;;;;;;16.52;12.45;;;13.90;99.90;;;;;;2052169;28;20035;-78
2023/10/31 01:18:08;;;;;;;14.73;12.10;;;13.80;99.90;;;;;;2051657;28;20015;-77
2023/10/31 01:19:09;;;;;;;19.30;12.88;;;13.80;99.90;;;;;;2059327;28;20113;-78
2023/10/31 01:20:11;;;;;;;18.90;12.05;;;13.80;99.90;;;;;;2056239;28;20022;-79
2023/10/31 01:21:11;;;;;;;16.33;12.13;;;13.80;99.90;;;;;;2058028;28;20086;-78
2023/10/31 01:22:12;;;;;;;16.67;12.35;;;13.80;99.90;;;;;;2058342;28;20169;-79
2023/10/31 01:23:13;;;;;;;19.80;14.48;;;13.90;99.90;;;;;;2055650;28;20015;-78
2023/10/31 01:24:13;;;;;;;19.15;14.73;;;13.90;99.90;;;;;;2053726;28;20526;-79
2023/10/31 01:25:14;;;;;;;19.65;14.25;;;13.80;99.90;;;;;;2048685;28;20402;-79
2023/10/31 01:26:14;;;;;;;17.63;13.38;;;13.80;99.90;;;;;;2047102;28;20030;-78
2023/10/31 01:27:16;;;;;;;17.83;13.88;;;13.80;99.90;;;;;;2044444;28;20079;-78
2023/10/31 01:28:16;;;;;;;20.42;13.98;;;13.80;99.90;;;;;;2047625;28;20184;-77
2023/10/31 01:29:17;;;;;;;20.00;14.38;;;13.80;99.90;;;;;;2049783;28;20835;-77
2023/10/31 01:30:17;;;;;;;21.13;13.88;;;13.80;99.90;;;;;;2053604;28;20121;-77
2023/10/31 01:31:18;;;;;;;20.67;12.63;;;13.80;99.90;;;;;;2050638;28;20173;-76
2023/10/31 01:32:19;;;;;;;21.65;13.82;;;13.80;99.90;;;;;;2050293;28;20027;-77
2023/10/31 01:33:20;;;;;;;20.30;14.80;;;13.80;99.90;;;;;;2059815;28;20039;-78
2023/10/31 01:34:21;;;;;;;20.88;15.73;;;13.80;99.90;;;;;;2061838;28;20033;-78
2023/10/31 01:35:21;;;;;;;21.63;15.77;;;13.80;99.90;;;;;;2053380;28;20119;-79
2023/10/31 01:36:29;;;;;;;22.77;16.10;;;13.80;99.90;;;;;;2062439;28;20061;-77
2023/10/31 01:37:29;;;;;;;21.02;14.07;;;13.80;99.90;;;;;;2062828;28;20057;-77
2023/10/31 01:38:30;;;;;;;19.98;15.15;;;13.80;99.90;;;;;;2055742;28;20117;-77
2023/10/31 01:39:31;;;;;;;19.83;14.98;;;13.80;99.90;;;;;;2047778;28;20114;-78
2023/10/31 01:40:32;;;;;;;18.95;14.18;;;13.80;99.90;;;;;;2051776;28;20041;-77
2023/10/31 01:41:32;;;;;;;19.30;14.15;;;13.80;99.90;;;;;;2051473;28;20077;-78
2023/10/31 01:42:35;;;;;;;16.20;14.10;;;13.80;99.90;;;;;;2041824;28;20109;-79
2023/10/31 01:43:37;;;;;;;20.52;14.75;;;13.80;99.90;;;;;;2054633;28;20694;-77
2023/10/31 01:44:37;;;;;;;20.90;14.73;;;13.80;99.90;;;;;;2045490;28;20042;-78
2023/10/31 01:45:38;;;;;;;17.58;14.02;;;13.80;99.90;;;;;;2037699;28;20031;-77
2023/10/31 01:46:38;;;;;;;18.77;14.60;;;13.80;99.90;;;;;;2045018;28;20384;-77
2023/10/31 01:47:39;;;;;;;18.90;14.23;;;13.80;99.90;;;;;;2048523;28;20423;-77
2023/10/31 01:48:40;;;;;;;18.50;14.10;;;13.80;99.90;;;;;;2047349;28;20076;-77
2023/10/31 01:49:41;;;;;;;18.25;13.65;;;13.80;99.90;;;;;;2051680;28;20797;-78
2023/10/31 01:50:41;;;;;;;22.00;14.20;;;13.80;99.90;;;;;;2058788;28;20035;-78
2023/10/31 01:51:42;;;;;;;19.60;14.23;;;13.70;99.90;;;;;;2061905;28;20026;-78
2023/10/31 01:52:43;;;;;;;22.73;14.00;;;13.70;99.90;;;;;;2059441;28;20117;-78
2023/10/31 01:53:44;;;;;;;18.70;13.73;;;13.70;99.90;;;;;;2046770;28;20110;-78
2023/10/31 01:54:44;;;;;;;19.70;14.18;;;13.70;99.90;;;;;;2046622;28;20089;-78
2023/10/31 01:55:46;;;;;;;18.90;14.93;;;13.70;99.90;;;;;;2042778;28;20061;-78
2023/10/31 01:56:50;;;;;;;16.42;14.30;;;13.70;99.90;;;;;;2050744;28;20023;-79
2023/10/31 01:57:51;;;;;;;20.73;14.55;;;13.60;99.90;;;;;;2051693;28;20038;-78
2023/10/31 01:58:53;;;;;;;19.48;14.40;;;13.70;99.90;;;;;;2039882;28;20854;-77
2023/10/31 01:59:53;;;;;;;18.95;14.23;;;13.60;99.90;;;;;;2054167;28;20023;-78
2023/10/31 02:00:55;;;;;;;22.75;14.40;;;13.60;99.90;;;;;;2062582;28;20032;-77
2023/10/31 02:01:57;;;;;;;18.25;14.20;;;13.60;99.90;;;;;;2058618;28;20049;-78
2023/10/31 02:02:58;;;;;;;19.33;14.65;;;13.60;99.90;;;;;;2059704;28;20038;-75
2023/10/31 02:03:59;;;;;;;17.15;14.43;;;13.60;99.90;;;;;;2061538;28;20033;-79
2023/10/31 02:05:00;;;;;;;19.35;14.93;;;13.60;99.90;;;;;;2059728;28;20022;-77
2023/10/31 02:06:01;;;;;;;23.80;15.43;;;13.60;99.90;;;;;;2058628;28;20117;-79
2023/10/31 02:07:01;;;;;;;21.23;15.23;;;13.60;99.90;;;;;;2062621;28;20026;-74
2023/10/31 02:08:02;;;;;;;18.52;14.93;;;13.60;99.90;;;;;;2054295;28;20026;-74
2023/10/31 02:09:03;;;;;;;18.02;14.48;;;13.60;99.90;;;;;;2044660;28;20514;-75
2023/10/31 02:10:04;;;;;;;19.98;15.60;;;13.60;99.90;;;;;;2051258;28;20122;-75
2023/10/31 02:11:09;;;;;;;22.77;15.43;;;13.60;99.90;;;;;;2059788;28;20018;-74
2023/10/31 02:12:10;;;;;;;19.52;14.82;;;13.60;99.90;;;;;;2056946;28;20027;-74
2023/10/31 02:13:15;;;;;;;19.33;14.98;;;13.60;99.90;;;;;;2058560;28;20429;-74
2023/10/31 02:14:15;;;;;;;22.02;15.70;;;13.60;99.90;;;;;;2050728;28;20035;-75
2023/10/31 02:15:16;;;;;;;19.25;15.10;;;13.60;99.90;;;;;;2050598;28;20121;-75
2023/10/31 02:16:16;;;;;;;22.27;16.05;;;13.60;99.90;;;;;;2059463;28;20490;-75
2023/10/31 02:17:17;;;;;;;19.50;15.57;;;13.60;99.90;;;;;;2057763;28;20042;-75
2023/10/31 02:18:18;;;;;;;24.08;16.05;;;13.60;99.90;;;;;;2057251;28;20057;-74
2023/10/31 02:19:20;;;;;;;19.55;16.75;;;13.60;99.90;;;;;;2038487;28;20480;-74
2023/10/31 02:20:21;;;;;;;24.00;16.15;;;13.60;99.90;;;;;;2049123;28;20042;-75
2023/10/31 02:21:23;;;;;;;22.30;16.05;;;13.60;99.90;;;;;;2054428;28;20424;-74
2023/10/31 02:22:24;;;;;;;20.38;16.13;;;13.60;99.90;;;;;;2050677;28;20119;-75
2023/10/31 02:23:24;;;;;;;21.52;16.50;;;13.60;99.90;;;;;;2051941;28;20117;-76
2023/10/31 02:24:25;;;;;;;23.50;16.35;;;13.60;99.90;;;;;;2046025;28;20011;-76
2023/10/31 02:25:25;;;;;;;22.15;16.40;;;13.60;99.90;;;;;;2050283;28;20034;-76
2023/10/31 02:26:30;;;;;;;20.08;16.23;;;13.60;99.90;;;;;;2061918;28;20100;-75
2023/10/31 02:27:31;;;;;;;19.92;15.68;;;13.50;99.90;;;;;;2055498;28;20054;-75
2023/10/31 02:28:31;;;;;;;20.05;16.02;;;13.50;99.90;;;;;;2056707;28;20037;-76
2023/10/31 02:29:32;;;;;;;20.08;16.52;;;13.50;99.90;;;;;;2058166;28;20275;-76
2023/10/31 02:30:34;;;;;;;23.73;17.70;;;13.50;99.90;;;;;;2059257;28;20050;-75
2023/10/31 02:31:35;;;;;;;23.88;17.45;;;13.50;99.90;;;;;;2058369;28;20034;-75
2023/10/31 02:32:35;;;;;;;22.02;16.77;;;13.50;99.90;;;;;;2058603;28;20031;-76
2023/10/31 02:33:38;;;;;;;22.23;17.13;;;13.50;99.90;;;;;;2051172;28;20390;-76
2023/10/31 02:34:38;;;;;;;19.30;16.67;;;13.50;99.90;;;;;;2054466;28;20327;-76
2023/10/31 02:35:39;;;;;;;23.95;17.17;;;13.40;99.90;;;;;;2064247;28;20058;-76
2023/10/31 02:36:39;;;;;;;21.30;16.92;;;13.50;99.90;;;;;;2044786;28;20039;-75
2023/10/31 02:37:40;;;;;;;22.70;17.58;;;13.50;99.90;;;;;;2048236;28;20043;-75
2023/10/31 02:38:40;;;;;;;22.98;17.88;;;13.50;99.90;;;;;;2054337;28;20027;-75
2023/10/31 02:39:42;;;;;;;22.70;17.65;;;13.50;99.90;;;;;;2051988;28;20089;-75
2023/10/31 02:40:42;;;;;;;22.80;17.23;;;13.40;99.90;;;;;;2053331;28;20713;-75
2023/10/31 02:41:43;;;;;;;23.77;18.20;;;13.40;99.90;;;;;;2059555;28;20148;-75
2023/10/31 02:42:44;;;;;;;25.52;18.20;;;13.40;99.90;;;;;;2062185;28;20038;-75
2023/10/31 02:43:45;;;;;;;24.48;18.45;;;13.40;99.90;;;;;;2057657;28;20026;-75
2023/10/31 02:44:46;;;;;;;23.27;18.15;;;13.40;99.90;;;;;;2055362;28;20053;-75
2023/10/31 02:45:47;;;;;;;24.67;18.00;;;13.40;99.90;;;;;;2052821;28;20038;-74
2023/10/31 02:46:48;;;;;;;25.55;19.35;;;13.40;99.90;;;;;;2048554;28;20069;-74
2023/10/31 02:47:48;;;;;;;24.10;19.08;;;13.40;99.90;;;;;;2047445;28;20027;-75
2023/10/31 02:48:49;;;;;;;28.67;20.85;;;13.40;99.90;;;;;;2049005;28;20546;-74
2023/10/31 02:49:49;;;;;;;25.20;20.70;;;13.40;99.90;;;;;;2049418;28;20034;-74
2023/10/31 02:50:51;;;;;;;28.67;22.35;;;13.30;99.90;;;;;;2045976;28;20121;-74
2023/10/31 02:51:51;;;;;;;27.92;21.55;;;13.40;99.90;;;;;;2054113;28;20045;-74
2023/10/31 02:52:52;;;;;;;29.05;22.83;;;13.40;99.90;;;;;;2054444;28;20109;-73
2023/10/31 02:53:52;;;;;;;30.27;21.83;;;13.30;99.90;;;;;;2051738;28;20112;-74
2023/10/31 02:54:54;;;;;;;30.23;24.17;;;13.30;99.90;;;;;;2042426;28;20027;-73
2023/10/31 02:55:56;;;;;;;31.52;23.75;;;13.30;99.90;;;;;;2053564;28;20033;-74
2023/10/31 02:56:57;;;;;;;32.20;23.70;;;13.30;99.90;;;;;;2062126;28;20543;-75
2023/10/31 02:57:58;;;;;;;33.38;25.15;;;13.30;99.90;;;;;;2056038;28;20124;-75
2023/10/31 02:58:59;;;;;;;32.95;24.85;;;13.30;99.90;;;;;;2059930;28;20022;-75
2023/10/31 02:59:59;;;;;;;31.85;24.98;;;13.30;99.90;;;;;;2058221;28;20034;-74
2023/10/31 03:01:00;;;;;;;31.50;25.00;;;13.30;99.90;;;;;;2052468;28;20022;-76
2023/10/31 03:02:00;;;;;;;35.08;25.75;;;13.30;99.90;;;;;;2048920;28;20649;-75
2023/10/31 03:03:01;;;;;;;34.03;25.92;;;13.30;99.90;;;;;;2060511;28;20036;-75
2023/10/31 03:04:02;;;;;;;33.95;26.45;;;13.30;99.90;;;;;;2052228;28;20528;-75
2023/10/31 03:05:03;;;;;;;36.45;26.45;;;13.30;99.90;;;;;;2046888;28;20023;-75
2023/10/31 03:06:05;;;;;;;36.15;27.38;;;13.30;99.90;;;;;;2056195;28;20572;-74
2023/10/31 03:07:05;;;;;;;38.17;27.58;;;13.30;99.90;;;;;;2059858;28;20517;-75
2023/10/31 03:08:08;;;;;;;33.00;25.98;;;13.30;99.90;;;;;;2057157;28;20026;-75
2023/10/31 03:09:08;;;;;;;34.67;26.90;;;13.30;99.90;;;;;;2056530;28;20046;-75
2023/10/31 03:10:09;;;;;;;36.67;26.70;;;13.30;99.90;;;;;;2052258;28;20046;-75
2023/10/31 03:11:21;;;;;;;35.65;27.30;;;13.30;99.90;;;;;;2050040;28;20117;-76
2023/10/31 03:12:24;;;;;;;35.88;27.42;;;13.30;99.90;;;;;;2057977;28;20034;-75
2023/10/31 03:13:24;;;;;;;37.88;27.80;;;13.20;99.90;;;;;;2044291;28;20510;-75
2023/10/31 03:14:25;;;;;;;39.17;27.90;;;13.20;99.90;;;;;;2045792;28;20031;-75
2023/10/31 03:15:25;;;;;;;37.42;27.27;;;13.20;99.90;;;;;;2051212;28;20038;-74
2023/10/31 03:16:26;;;;;;;36.75;27.38;;;13.20;99.90;;;;;;2048188;28;20031;-75
2023/10/31 03:17:28;;;;;;;37.13;27.90;;;13.20;99.90;;;;;;2060695;28;20033;-76
2023/10/31 03:18:29;;;;;;;36.38;27.60;;;13.20;99.90;;;;;;2051899;28;20042;-74
2023/10/31 03:19:29;;;;;;;39.72;27.65;;;13.20;99.90;;;;;;2046510;28;20035;-75
2023/10/31 03:20:31;;;;;;;37.55;27.80;;;13.20;99.90;;;;;;2047408;28;20446;-74
2023/10/31 03:21:31;;;;;;;37.20;28.05;;;13.20;99.90;;;;;;2045090;28;20047;-74
2023/10/31 03:22:32;;;;;;;46.35;32.13;;;13.20;99.90;;;;;;2057116;28;20026;-74
2023/10/31 03:23:32;;;;;;;41.80;29.55;;;13.20;99.90;;;;;;2054936;28;20125;-74
2023/10/31 03:24:33;;;;;;;38.83;28.05;;;13.20;99.90;;;;;;2049506;28;20034;-74
2023/10/31 03:25:34;;;;;;;35.47;28.17;;;13.20;99.90;;;;;;2058081;28;20062;-74
2023/10/31 03:26:34;;;;;;;37.75;28.23;;;13.20;99.90;;;;;;2061530;28;20030;-74
2023/10/31 03:27:35;;;;;;;61.08;50.90;;;13.20;99.90;;;;;;2054046;28;20100;-75
2023/10/31 03:28:36;;;;;;;40.08;28.30;;;13.10;99.90;;;;;;2060183;28;20022;-75
2023/10/31 03:29:37;;;;;;;38.72;27.40;;;13.20;99.90;;;;;;2061733;28;20022;-74
2023/10/31 03:30:38;;;;;;;37.72;27.88;;;13.20;99.90;;;;;;2046736;28;20085;-75
2023/10/31 03:31:38;;;;;;;43.10;33.08;;;13.20;99.90;;;;;;2049861;28;20117;-75
2023/10/31 03:32:39;;;;;;;50.80;38.75;;;13.20;99.90;;;;;;2046504;28;20055;-75
2023/10/31 03:33:41;;;;;;;47.05;35.40;;;13.20;99.90;;;;;;2060239;28;20046;-74
2023/10/31 03:34:42;;;;;;;40.05;31.40;;;13.20;99.90;;;;;;2058779;28;20497;-74
2023/10/31 03:35:43;;;;;;;38.42;28.52;;;13.20;99.90;;;;;;2053966;28;20062;-74
2023/10/31 03:36:43;;;;;;;38.00;28.20;;;13.20;99.90;;;;;;2051457;28;20034;-76
2023/10/31 03:37:44;;;;;;;35.63;27.10;;;13.20;99.90;;;;;;2049777;28;20486;-75
2023/10/31 03:38:45;;;;;;;33.30;25.38;;;13.20;99.90;;;;;;2051845;28;20030;-74
2023/10/31 03:39:45;;;;;;;33.15;25.05;;;13.10;99.90;;;;;;2059448;28;20429;-76
2023/10/31 03:40:46;;;;;;;36.42;26.38;;;13.10;99.90;;;;;;2057990;28;20379;-76
2023/10/31 03:41:46;;;;;;;31.60;23.27;;;13.20;99.90;;;;;;2057205;28;20030;-75
2023/10/31 03:42:47;;;;;;;35.63;25.48;;;13.20;99.90;;;;;;2057509;28;20038;-76
2023/10/31 03:43:48;;;;;;;36.42;26.33;;;13.20;99.90;;;;;;2042891;28;20379;-76
2023/10/31 03:44:48;;;;;;;34.75;25.92;;;13.20;99.90;;;;;;2045837;28;20482;-76
2023/10/31 03:45:49;;;;;;;33.60;26.25;;;13.20;99.90;;;;;;2061852;28;20015;-76
2023/10/31 03:46:50;;;;;;;31.30;24.05;;;13.20;99.90;;;;;;2062018;28;20038;-76
2023/10/31 03:47:50;;;;;;;34.58;24.88;;;13.20;99.90;;;;;;2054286;28;20058;-76
2023/10/31 03:48:51;;;;;;;34.35;24.58;;;13.20;99.90;;;;;;2050365;28;20109;-76
2023/10/31 03:49:52;;;;;;;33.30;25.42;;;13.20;99.90;;;;;;2053923;28;20416;-77
2023/10/31 03:50:52;;;;;;;36.25;25.98;;;13.20;99.90;;;;;;2049585;28;20034;-76
2023/10/31 03:51:53;;;;;;;32.58;24.80;;;13.20;99.90;;;;;;2051971;28;20035;-76
2023/10/31 03:52:53;;;;;;;33.08;24.75;;;13.20;99.90;;;;;;2053781;28;20053;-76
2023/10/31 03:53:54;;;;;;;29.67;22.98;;;13.10;99.90;;;;;;2052798;28;20486;-77
2023/10/31 03:54:55;;;;;;;28.42;21.80;;;13.10;99.90;;;;;;2059451;28;20588;-76
2023/10/31 03:55:55;;;;;;;25.90;20.23;;;13.10;99.90;;;;;;2062101;28;20076;-75
2023/10/31 03:56:56;;;;;;;24.70;19.00;;;13.10;99.90;;;;;;2052742;28;20030;-74
2023/10/31 03:57:56;;;;;;;24.30;18.95;;;13.10;99.90;;;;;;2053721;28;20039;-75
2023/10/31 03:58:57;;;;;;;24.60;19.15;;;13.10;99.90;;;;;;2057259;28;20030;-75
2023/10/31 03:59:58;;;;;;;22.42;18.33;;;13.10;99.90;;;;;;2057982;28;20574;-76
2023/10/31 04:00:58;;;;;;;23.20;17.85;;;13.10;99.90;;;;;;2059210;28;20030;-76
2023/10/31 04:01:59;;;;;;;22.75;17.42;;;13.10;99.90;;;;;;2058505;28;20052;-75
2023/10/31 04:03:00;;;;;;;19.17;15.68;;;13.10;99.90;;;;;;2047406;28;20027;-76
2023/10/31 04:04:01;;;;;;;18.20;15.32;;;13.10;99.90;;;;;;2046313;28;20023;-75
2023/10/31 04:05:02;;;;;;;21.17;14.63;;;13.10;99.90;;;;;;2053205;28;20080;-75
2023/10/31 04:06:03;;;;;;;17.05;13.98;;;13.10;99.90;;;;;;2046946;28;20023;-75
2023/10/31 04:07:04;;;;;;;19.00;14.68;;;13.10;99.90;;;;;;2058017;28;20031;-76
2023/10/31 04:08:05;;;;;;;19.55;14.38;;;13.10;99.90;;;;;;2055899;28;20030;-76
2023/10/31 04:09:05;;;;;;;18.42;14.30;;;13.10;99.90;;;;;;2050691;28;20505;-75
2023/10/31 04:10:07;;;;;;;16.73;13.55;;;13.10;99.90;;;;;;2049421;28;20078;-76
2023/10/31 04:11:07;;;;;;;19.30;14.05;;;13.10;99.90;;;;;;2048564;28;20023;-75
2023/10/31 04:12:08;;;;;;;18.55;14.35;;;13.10;99.90;;;;;;2052817;28;20544;-75
2023/10/31 04:13:09;;;;;;;19.05;13.43;;;13.10;99.90;;;;;;2048130;28;20024;-75
2023/10/31 04:14:10;;;;;;;18.90;12.65;;;13.10;99.90;;;;;;2052182;28;20092;-76
2023/10/31 04:15:10;;;;;;;15.52;12.45;;;13.10;99.90;;;;;;2050349;28;20568;-75
2023/10/31 04:16:11;;;;;;;16.90;11.80;;;13.10;99.90;;;;;;2047414;28;20059;-75
2023/10/31 04:17:12;;;;;;;14.95;12.48;;;13.10;99.90;;;;;;2052118;28;20027;-76
2023/10/31 04:18:12;;;;;;;15.77;13.02;;;13.20;99.90;;;;;;2048536;28;20031;-75
2023/10/31 04:19:13;;;;;;;16.95;12.32;;;13.20;99.90;;;;;;2046596;28;20421;-76
2023/10/31 04:20:14;;;;;;;17.80;12.88;;;13.10;99.90;;;;;;2047358;28;20045;-76
2023/10/31 04:21:15;;;;;;;17.90;13.00;;;13.20;99.90;;;;;;2050521;28;20033;-76
2023/10/31 04:22:15;;;;;;;16.83;12.60;;;13.20;99.90;;;;;;2050249;28;20031;-76
2023/10/31 04:23:16;;;;;;;16.23;12.00;;;13.20;99.90;;;;;;2041865;28;20028;-75
2023/10/31 04:24:16;;;;;;;17.48;12.30;;;13.20;99.90;;;;;;2045604;28;20710;-76
2023/10/31 04:25:17;;;;;;;16.77;11.93;;;13.20;99.90;;;;;;2042918;28;20591;-76
2023/10/31 04:26:17;;;;;;;15.90;11.80;;;13.20;99.90;;;;;;2045314;28;20034;-76
2023/10/31 04:27:18;;;;;;;14.13;11.80;;;13.20;99.90;;;;;;2047331;28;20614;-76
2023/10/31 04:28:19;;;;;;;14.73;11.73;;;13.20;99.90;;;;;;2050068;28;20533;-76
2023/10/31 04:29:19;;;;;;;15.60;12.05;;;13.20;99.90;;;;;;2042953;28;20069;-75
2023/10/31 04:30:21;;;;;;;13.30;10.52;;;13.20;99.90;;;;;;2045975;28;20030;-74
2023/10/31 04:31:22;;;;;;;12.93;10.23;;;13.10;99.90;;;;;;2045865;28;20681;-75
2023/10/31 04:32:22;;;;;;;11.82;9.70;;;13.10;99.90;;;;;;2050035;28;20030;-75
2023/10/31 04:33:23;;;;;;;13.95;10.23;;;13.10;99.90;;;;;;2042066;28;20039;-76
2023/10/31 04:34:23;;;;;;;12.13;9.45;;;13.10;99.90;;;;;;2049873;28;20118;-76
2023/10/31 04:35:24;;;;;;;13.25;10.05;;;13.10;99.90;;;;;;2043219;28;20035;-75
2023/10/31 04:36:25;;;;;;;11.48;9.30;;;13.10;99.90;;;;;;2051192;28;20085;-75
2023/10/31 04:37:26;;;;;;;10.27;8.77;;;13.10;99.90;;;;;;2059121;28;20061;-75
2023/10/31 04:38:27;;;;;;;11.88;8.70;;;13.10;99.90;;;;;;2063040;28;20077;-76
2023/10/31 04:39:28;;;;;;;11.90;8.23;;;13.10;99.90;;;;;;2047294;28;20031;-76
2023/10/31 04:40:29;;;;;;;11.20;8.02;;;13.10;99.90;;;;;;2054095;28;20031;-75
2023/10/31 04:41:29;;;;;;;10.77;8.60;;;13.10;99.90;;;;;;2048731;28;20669;-76
2023/10/31 04:42:31;;;;;;;12.38;8.43;;;13.10;99.90;;;;;;2047950;28;20387;-75
2023/10/31 04:43:32;;;;;;;11.60;8.57;;;13.10;99.90;;;;;;2047823;28;20043;-75
2023/10/31 04:44:33;;;;;;;12.50;8.10;;;13.00;99.90;;;;;;2062828;28;20042;-75
2023/10/31 04:45:33;;;;;;;9.50;8.07;;;13.10;99.90;;;;;;2060305;28;20034;-75
2023/10/31 04:46:34;;;;;;;10.85;7.50;;;13.10;99.90;;;;;;2049563;28;20039;-75
2023/10/31 04:47:34;;;;;;;11.30;7.32;;;13.10;99.90;;;;;;2051537;28;20108;-75
2023/10/31 04:48:35;;;;;;;9.10;7.25;;;13.00;99.90;;;;;;2057958;28;20034;-75
2023/10/31 04:49:36;;;;;;;11.35;7.20;;;13.00;99.90;;;;;;2053546;28;20021;-75
2023/10/31 04:50:36;;;;;;;8.43;6.85;;;13.10;99.90;;;;;;2048751;28;20907;-76
2023/10/31 04:51:37;;;;;;;7.45;6.20;;;13.00;99.90;;;;;;2055735;28;20401;-76
2023/10/31 04:52:38;;;;;;;7.88;6.40;;;13.00;99.90;;;;;;2061084;28;20033;-76
2023/10/31 04:53:39;;;;;;;10.18;6.30;;;13.00;99.90;;;;;;2061548;28;20036;-76
2023/10/31 04:54:40;;;;;;;8.02;5.72;;;13.00;99.90;;;;;;2055469;28;20551;-76
2023/10/31 04:55:40;;;;;;;9.10;5.78;;;13.00;99.90;;;;;;2059088;28;20931;-76
2023/10/31 04:56:41;;;;;;;6.47;5.68;;;13.00;99.90;;;;;;2059046;28;20054;-76
2023/10/31 04:57:42;;;;;;;8.88;6.05;;;13.10;99.90;;;;;;2051437;28;20038;-76
2023/10/31 04:58:43;;;;;;;8.80;6.00;;;13.10;99.90;;;;;;2054876;28;20082;-77
2023/10/31 04:59:43;;;;;;;8.60;5.70;;;13.10;99.90;;;;;;2049155;28;20846;-76
2023/10/31 05:00:44;;;;;;;7.32;5.60;;;13.00;99.90;;;;;;2047976;28;20050;-76
2023/10/31 05:01:50;;;;;;;6.70;5.65;;;13.10;99.90;;;;;;2047919;28;20031;-76
2023/10/31 05:02:50;;;;;;;7.63;5.32;;;13.10;99.90;;;;;;2050494;28;20038;-76
2023/10/31 05:03:52;;;;;;;7.90;5.57;;;13.10;99.90;;;;;;2051041;28;20026;-76
2023/10/31 05:04:52;;;;;;;6.60;5.20;;;13.10;99.90;;;;;;2051682;28;20030;-77
2023/10/31 05:05:53;;;;;;;6.43;5.78;;;13.10;99.90;;;;;;2047389;28;20027;-77
2023/10/31 05:06:54;;;;;;;7.25;5.65;;;13.10;99.90;;;;;;2054510;28;20426;-76
2023/10/31 05:07:54;;;;;;;7.03;5.82;;;13.10;99.90;;;;;;2048224;28;20107;-75
2023/10/31 05:08:55;;;;;;;6.72;5.05;;;13.10;99.90;;;;;;2050684;28;20031;-76